createdAt,value
2023-05-12T00:01:00.213Z,101373.00
2023-05-12T00:06:06.169Z,101370.44
2023-05-12T00:11:09.184Z,101374.78
2023-05-12T00:16:13.943Z,101372.25
2023-05-12T00:21:16.950Z,101387.81
2023-05-12T00:26:19.927Z,101378.13
2023-05-12T00:31:23.324Z,101395.53
2023-05-12T00:36:27.337Z,101388.13
2023-05-12T00:41:30.272Z,101358.28
2023-05-12T00:46:33.539Z,101391.97
2023-05-12T00:51:37.509Z,101374.34
2023-05-12T00:56:41.355Z,101400.28
2023-05-12T01:01:45.815Z,101388.88
2023-05-12T01:06:52.158Z,101387.88
2023-05-12T01:11:55.098Z,101378.19
2023-05-12T01:17:00.700Z,101405.19
2023-05-12T01:22:06.188Z,101405.03
2023-05-12T01:27:09.801Z,101413.81
2023-05-12T01:32:13.357Z,101412.91
2023-05-12T01:37:16.908Z,101411.28
2023-05-12T01:42:20.431Z,101415.41
2023-05-12T01:47:24.369Z,101420.56
2023-05-12T01:52:34.597Z,101430.06
2023-05-12T01:57:38.157Z,101428.41
2023-05-12T02:02:43.092Z,101413.38
2023-05-12T02:07:48.722Z,101409.75
2023-05-12T02:12:51.960Z,101414.78
2023-05-12T02:17:55.684Z,101413.84
2023-05-12T02:23:01.337Z,101430.31
2023-05-12T02:28:11.068Z,101436.25
2023-05-12T02:33:16.560Z,101438.81
2023-05-12T02:38:19.671Z,101429.63
2023-05-12T02:43:22.807Z,101433.84
2023-05-12T02:48:26.133Z,101439.66
2023-05-12T02:53:29.588Z,101419.66
2023-05-12T02:58:32.652Z,101434.28
2023-05-12T03:03:35.785Z,101434.81
2023-05-12T03:08:38.899Z,101417.97
2023-05-12T03:13:41.896Z,101423.97
2023-05-12T03:18:44.892Z,101434.16
2023-05-12T03:23:48.044Z,101429.41
2023-05-12T03:28:51.060Z,101446.13
2023-05-12T03:33:54.064Z,101456.25
2023-05-12T03:38:57.513Z,101455.66
2023-05-12T03:44:00.616Z,101458.47
2023-05-12T03:49:03.835Z,101466.53
2023-05-12T03:54:07.388Z,101449.91
2023-05-12T03:59:12.321Z,101459.53
2023-05-12T04:04:16.196Z,101463.94
2023-05-12T04:09:19.234Z,101464.94
2023-05-12T04:14:31.770Z,101454.53
2023-05-12T04:19:42.546Z,101463.50
2023-05-12T04:24:45.574Z,101477.28
2023-05-12T04:29:48.812Z,101473.88
2023-05-12T04:34:52.048Z,101480.16
2023-05-12T04:39:55.185Z,101493.56
2023-05-12T04:44:58.629Z,101491.88
2023-05-12T04:50:01.800Z,101492.75
2023-05-12T04:55:08.275Z,101495.94
2023-05-12T05:00:12.143Z,101484.28
2023-05-12T05:05:15.969Z,101477.03
2023-05-12T05:10:19.163Z,101486.97
2023-05-12T05:15:26.427Z,101489.22
2023-05-12T05:20:29.711Z,101476.59
2023-05-12T05:25:33.408Z,101490.22
2023-05-12T05:30:36.756Z,101501.06
2023-05-12T05:35:42.780Z,101496.22
2023-05-12T05:40:53.836Z,101486.13
2023-05-12T05:45:59.343Z,101482.47
2023-05-12T05:51:02.759Z,101486.66
2023-05-12T05:56:06.221Z,101485.06
2023-05-12T06:01:09.360Z,101490.22
2023-05-12T06:06:13.548Z,101484.94
2023-05-12T06:11:17.913Z,101510.34
2023-05-12T06:16:21.155Z,101484.97
2023-05-12T06:21:24.477Z,101499.06
2023-05-12T06:26:28.238Z,101494.22
2023-05-12T06:31:32.469Z,101514.41
2023-05-12T06:36:35.501Z,101519.38
2023-05-12T06:41:38.506Z,101501.97
2023-05-12T06:46:41.562Z,101517.22
2023-05-12T06:51:44.645Z,101502.97
2023-05-12T06:56:47.784Z,101500.72
2023-05-12T07:01:50.839Z,101515.22
2023-05-12T07:06:54.098Z,101515.09
2023-05-12T07:11:57.046Z,101494.19
2023-05-12T07:17:00.104Z,101492.59
2023-05-12T07:22:03.172Z,101494.84
2023-05-12T07:27:06.590Z,101501.88
2023-05-12T07:32:09.661Z,101504.56
2023-05-12T07:37:12.678Z,101515.91
2023-05-12T07:42:15.818Z,101494.34
2023-05-12T07:47:18.836Z,101517.25
2023-05-12T07:52:22.103Z,101508.38
2023-05-12T07:57:25.464Z,101491.13
2023-05-12T08:02:28.670Z,101514.00
2023-05-12T08:07:35.188Z,101511.66
2023-05-12T08:12:38.344Z,101516.53
2023-05-12T08:17:41.423Z,101508.72
2023-05-12T08:22:44.974Z,101519.16
2023-05-12T08:27:47.974Z,101518.50
2023-05-12T08:32:51.053Z,101521.28
2023-05-12T08:37:54.523Z,101527.84
2023-05-12T08:43:06.330Z,101537.59
2023-05-12T08:48:11.136Z,101528.78
2023-05-12T08:53:16.751Z,101533.00
2023-05-12T08:58:25.294Z,101539.50
2023-05-12T09:03:37.168Z,101544.22
2023-05-12T09:08:41.589Z,101538.13
2023-05-12T09:14:00.662Z,101542.63
2023-05-12T09:19:06.669Z,101545.13
2023-05-12T09:24:10.303Z,101528.22
2023-05-12T09:29:20.817Z,101551.94
2023-05-12T09:34:38.905Z,101544.75
2023-05-12T09:39:42.340Z,101532.06
2023-05-12T09:44:47.284Z,101531.03
2023-05-12T09:49:52.657Z,101523.97
2023-05-12T09:54:55.710Z,101537.28
2023-05-12T09:59:59.039Z,101546.22
2023-05-12T10:05:07.153Z,101542.16
2023-05-12T10:10:14.815Z,101544.84
2023-05-12T10:15:18.901Z,101555.69
2023-05-12T10:20:22.139Z,101551.47
2023-05-12T10:25:25.362Z,101542.47
2023-05-12T10:30:28.624Z,101549.97
2023-05-12T10:35:36.723Z,101561.91
2023-05-12T10:41:01.483Z,101571.19
2023-05-12T10:46:09.320Z,101568.59
2023-05-12T10:51:12.358Z,101554.09
2023-05-12T10:56:23.865Z,101559.53
2023-05-12T11:01:27.606Z,101555.69
2023-05-12T11:06:31.390Z,101567.91
2023-05-12T11:11:36.382Z,101566.75
2023-05-12T11:16:46.001Z,101561.84
2023-05-12T11:21:49.130Z,101551.75
2023-05-12T11:26:52.535Z,101563.88
2023-05-12T11:31:55.963Z,101579.63
2023-05-12T11:36:58.926Z,101567.63
2023-05-12T11:42:12.960Z,101577.38
2023-05-12T11:47:18.107Z,101560.00
2023-05-12T11:52:23.346Z,101562.88
2023-05-12T11:57:27.939Z,101557.38
2023-05-12T12:02:31.813Z,101571.03
2023-05-12T12:07:36.822Z,101558.91
2023-05-12T12:12:42.602Z,101583.16
2023-05-12T12:17:45.736Z,101566.81
2023-05-12T12:22:49.973Z,101591.13
2023-05-12T12:27:53.544Z,101595.88
2023-05-12T12:32:56.783Z,101576.09
2023-05-12T12:37:59.890Z,101598.88
2023-05-12T12:43:02.948Z,101584.91
2023-05-12T12:48:07.059Z,101584.66
2023-05-12T12:53:10.205Z,101600.38
2023-05-12T12:58:15.926Z,101628.31
2023-05-12T13:03:20.287Z,101623.47
2023-05-12T13:08:24.727Z,101636.53
2023-05-12T13:13:27.748Z,101638.69
2023-05-12T13:18:30.867Z,101629.09
2023-05-12T13:23:34.027Z,101653.44
2023-05-12T13:28:37.558Z,101630.00
2023-05-12T13:33:40.683Z,101654.16
2023-05-12T13:38:43.683Z,101654.38
2023-05-12T13:43:49.906Z,101628.28
2023-05-12T13:48:53.140Z,101649.31
2023-05-12T13:53:56.382Z,101642.50
2023-05-12T13:58:59.363Z,101655.81
2023-05-12T14:04:02.426Z,101647.59
2023-05-12T14:09:08.517Z,101665.38
2023-05-12T14:14:14.245Z,101642.97
2023-05-12T14:19:17.368Z,101655.03
2023-05-12T14:24:20.522Z,101640.38
2023-05-12T14:29:23.607Z,101653.69
2023-05-12T14:34:26.721Z,101670.22
2023-05-12T14:39:29.695Z,101681.91
2023-05-12T14:44:32.640Z,101662.59
2023-05-12T14:49:35.681Z,101663.78
2023-05-12T14:54:38.746Z,101685.75
2023-05-12T14:59:41.721Z,101689.41
2023-05-12T15:04:44.694Z,101684.31
2023-05-12T15:09:47.643Z,101671.53
2023-05-12T15:14:51.072Z,101678.97
2023-05-12T15:19:54.559Z,101668.72
2023-05-12T15:25:00.695Z,101693.13
2023-05-12T15:30:04.079Z,101697.19
2023-05-12T15:35:09.634Z,101686.31
2023-05-12T15:40:13.931Z,101689.75
2023-05-12T15:45:16.899Z,101690.91
2023-05-12T15:50:23.198Z,101707.88
2023-05-12T15:55:26.663Z,101707.63
2023-05-12T16:00:29.737Z,101707.63
2023-05-12T16:05:34.417Z,101700.63
2023-05-12T16:10:37.386Z,101714.41
2023-05-12T16:15:40.458Z,101729.22
2023-05-12T16:20:44.852Z,101726.09
2023-05-12T16:25:47.874Z,101743.97
2023-05-12T16:30:50.889Z,101755.78
2023-05-12T16:35:54.002Z,101747.50
2023-05-12T16:40:57.016Z,101776.75
2023-05-12T16:46:01.704Z,101772.00
2023-05-12T16:51:07.027Z,101797.72
2023-05-12T16:56:10.549Z,101790.22
2023-05-12T17:01:13.801Z,101786.13
2023-05-12T17:06:16.768Z,101809.84
2023-05-12T17:11:19.801Z,101810.84
2023-05-12T17:16:23.229Z,101796.38
2023-05-12T17:21:26.787Z,101803.63
2023-05-12T17:26:29.900Z,101821.06
2023-05-12T17:31:32.999Z,101824.69
2023-05-12T17:36:36.104Z,101817.03
2023-05-12T17:41:39.120Z,101833.78
2023-05-12T17:46:42.170Z,101825.97
2023-05-12T17:51:45.286Z,101836.84
2023-05-12T17:56:48.323Z,101852.81
2023-05-12T18:01:52.222Z,101846.00
2023-05-12T18:06:55.462Z,101851.38
2023-05-12T18:11:58.404Z,101838.44
2023-05-12T18:17:01.478Z,101821.00
2023-05-12T18:22:04.623Z,101841.91
2023-05-12T18:27:07.753Z,101818.50
2023-05-12T18:32:11.125Z,101838.69
2023-05-12T18:37:15.822Z,101835.22
2023-05-12T18:42:18.825Z,101827.66
2023-05-12T18:47:21.916Z,101807.84
2023-05-12T18:52:24.910Z,101811.69
2023-05-12T18:57:28.037Z,101809.16
2023-05-12T19:02:31.007Z,101815.31
2023-05-12T19:07:33.983Z,101799.81
2023-05-12T19:12:37.068Z,101794.84
2023-05-12T19:17:40.109Z,101797.56
2023-05-12T19:22:44.267Z,101782.91
2023-05-12T19:27:47.244Z,101786.75
2023-05-12T19:32:50.375Z,101808.88
2023-05-12T19:37:53.365Z,101814.25
2023-05-12T19:42:56.877Z,101798.66
2023-05-12T19:47:59.952Z,101794.50
2023-05-12T19:53:03.004Z,101825.25
2023-05-12T19:58:06.136Z,101814.78
2023-05-12T20:03:09.302Z,101798.34
2023-05-12T20:08:12.808Z,101816.72
2023-05-12T20:13:15.905Z,101799.34
2023-05-12T20:18:19.152Z,101805.38
2023-05-12T20:23:22.164Z,101788.84
2023-05-12T20:28:25.360Z,101806.44
2023-05-12T20:33:28.338Z,101808.31
2023-05-12T20:38:31.293Z,101784.88
2023-05-12T20:43:34.395Z,101806.75
2023-05-12T20:48:37.460Z,101784.13
2023-05-12T20:53:40.538Z,101778.91
2023-05-12T20:58:43.626Z,101774.66
2023-05-12T21:03:46.660Z,101773.00
2023-05-12T21:08:49.819Z,101791.34
2023-05-12T21:13:52.894Z,101787.84
2023-05-12T21:18:56.345Z,101779.25
2023-05-12T21:23:59.354Z,101773.97
2023-05-12T21:29:03.719Z,101786.31
2023-05-12T21:34:07.477Z,101784.59
2023-05-12T21:39:10.463Z,101803.75
2023-05-12T21:44:13.461Z,101803.66
2023-05-12T21:49:16.488Z,101810.63
2023-05-12T21:54:19.428Z,101787.00
2023-05-12T21:59:22.409Z,101788.75
2023-05-12T22:04:25.389Z,101790.56
2023-05-12T22:09:30.410Z,101789.69
2023-05-12T22:14:34.100Z,101792.41
2023-05-12T22:19:37.280Z,101788.25
2023-05-12T22:24:40.332Z,101800.38
2023-05-12T22:29:43.279Z,101774.31
2023-05-12T22:34:46.251Z,101783.09
2023-05-12T22:39:49.237Z,101803.25
2023-05-12T22:44:52.188Z,101784.09
2023-05-12T22:49:55.215Z,101804.22
2023-05-12T22:54:58.154Z,101792.78
2023-05-12T23:00:01.120Z,101811.00
2023-05-12T23:05:04.496Z,101807.38
2023-05-12T23:10:08.026Z,101807.22
2023-05-12T23:15:11.374Z,101815.09
2023-05-12T23:20:14.366Z,101826.44
2023-05-12T23:25:19.180Z,101806.41
2023-05-12T23:30:22.331Z,101826.50
2023-05-12T23:35:26.497Z,101813.44
2023-05-12T23:40:29.479Z,101830.06
2023-05-12T23:45:33.369Z,101824.78
2023-05-12T23:50:36.381Z,101827.50
2023-05-12T23:55:39.369Z,101815.28
